createdAt,value
2023-04-12T00:01:55.499Z,46.50
2023-04-12T00:04:29.448Z,50.70
2023-04-12T00:07:03.342Z,47.80
2023-04-12T00:09:38.189Z,54.60
2023-04-12T00:12:11.626Z,52.90
2023-04-12T00:14:44.327Z,47.10
2023-04-12T00:17:17.299Z,54.20
2023-04-12T00:19:50.300Z,42.80
2023-04-12T00:22:28.805Z,35.50
2023-04-12T00:25:02.136Z,31.00
2023-04-12T00:27:35.840Z,29.30
2023-04-12T00:30:14.629Z,26.10
2023-04-12T00:32:49.290Z,20.00
2023-04-12T00:35:23.448Z,20.30
2023-04-12T00:37:57.508Z,20.60
2023-04-12T00:40:30.313Z,19.30
2023-04-12T00:43:04.671Z,16.90
2023-04-12T00:45:38.737Z,20.00
2023-04-12T00:48:17.755Z,17.80
2023-04-12T00:50:55.848Z,20.80
2023-04-12T00:53:29.666Z,22.90
2023-04-12T00:56:03.844Z,25.00
2023-04-12T00:58:37.185Z,24.30
2023-04-12T01:01:11.412Z,24.30
2023-04-12T01:03:48.863Z,25.20
2023-04-12T01:06:30.142Z,24.30
2023-04-12T01:09:05.823Z,24.40
2023-04-12T01:11:39.831Z,25.40
2023-04-12T01:14:16.463Z,24.30
2023-04-12T01:16:51.863Z,19.70
2023-04-12T01:19:46.440Z,20.90
2023-04-12T01:22:31.573Z,16.40
2023-04-12T01:25:14.386Z,14.20
2023-04-12T01:27:49.906Z,14.10
2023-04-12T01:30:24.871Z,14.80
2023-04-12T01:32:58.771Z,13.30
2023-04-12T01:35:34.922Z,14.60
2023-04-12T01:38:08.271Z,15.00
2023-04-12T01:40:43.185Z,14.50
2023-04-12T01:43:16.990Z,13.80
2023-04-12T01:45:50.762Z,14.70
2023-04-12T01:48:23.691Z,14.60
2023-04-12T01:51:05.755Z,14.30
2023-04-12T01:53:45.075Z,12.40
2023-04-12T01:56:21.515Z,10.30
2023-04-12T01:58:55.281Z,12.00
2023-04-12T02:01:29.454Z,10.70
2023-04-12T02:04:04.920Z,14.30
2023-04-12T02:06:37.902Z,14.50
2023-04-12T02:09:10.900Z,11.70
2023-04-12T02:11:49.941Z,12.20
2023-04-12T02:14:22.943Z,11.60
2023-04-12T02:16:56.344Z,12.90
2023-04-12T02:19:30.391Z,13.00
2023-04-12T02:22:04.645Z,13.00
2023-04-12T02:24:42.612Z,19.60
2023-04-12T02:27:19.101Z,17.00
2023-04-12T02:29:51.848Z,17.80
2023-04-12T02:32:25.166Z,16.80
2023-04-12T02:34:59.516Z,14.50
2023-04-12T02:37:34.979Z,12.50
2023-04-12T02:40:11.824Z,11.30
2023-04-12T02:42:44.887Z,10.70
2023-04-12T02:45:18.685Z,9.10
2023-04-12T02:47:55.101Z,9.60
2023-04-12T02:50:31.850Z,11.20
2023-04-12T02:53:13.632Z,12.50
2023-04-12T02:55:48.518Z,12.20
2023-04-12T02:58:22.330Z,12.70
2023-04-12T03:00:57.650Z,15.20
2023-04-12T03:03:33.616Z,15.50
2023-04-12T03:06:12.640Z,16.50
2023-04-12T03:08:47.477Z,20.60
2023-04-12T03:11:20.746Z,21.70
2023-04-12T03:13:54.278Z,32.70
2023-04-12T03:16:30.063Z,39.20
2023-04-12T03:19:11.311Z,44.20
2023-04-12T03:21:48.090Z,49.20
2023-04-12T03:24:21.804Z,46.20
2023-04-12T03:26:55.373Z,44.00
2023-04-12T03:29:30.684Z,41.50
2023-04-12T03:32:03.995Z,38.70
2023-04-12T03:34:38.165Z,37.50
2023-04-12T03:37:17.345Z,37.20
2023-04-12T03:39:50.400Z,33.30
2023-04-12T03:42:33.601Z,42.70
2023-04-12T03:45:21.069Z,39.60
2023-04-12T03:47:58.249Z,42.60
2023-04-12T03:50:44.822Z,48.70
2023-04-12T03:55:55.174Z,55.80
2023-04-12T03:58:35.104Z,68.20
2023-04-12T04:01:09.484Z,58.60
2023-04-12T04:03:43.868Z,53.90
2023-04-12T04:06:26.938Z,53.90
2023-04-12T04:09:01.585Z,50.80
2023-04-12T04:11:35.835Z,43.60
2023-04-12T04:14:12.012Z,44.50
2023-04-12T04:16:45.337Z,44.50
2023-04-12T04:19:18.952Z,51.50
2023-04-12T04:21:56.574Z,49.90
2023-04-12T04:24:30.365Z,44.10
2023-04-12T04:27:06.720Z,37.60
2023-04-12T04:29:45.489Z,37.20
2023-04-12T04:32:20.330Z,38.10
2023-04-12T04:34:54.084Z,32.60
2023-04-12T04:37:28.392Z,30.90
2023-04-12T04:40:11.875Z,24.80
2023-04-12T04:42:46.764Z,24.20
2023-04-12T04:45:22.315Z,25.10
2023-04-12T04:47:55.561Z,25.70
2023-04-12T04:50:32.452Z,30.10
2023-04-12T04:53:06.162Z,24.40
2023-04-12T04:55:39.120Z,20.40
2023-04-12T04:58:13.817Z,17.60
2023-04-12T05:00:49.312Z,14.40
2023-04-12T05:03:23.135Z,17.90
2023-04-12T05:05:56.649Z,24.80
2023-04-12T05:08:30.024Z,21.80
2023-04-12T05:11:03.904Z,19.30
2023-04-12T05:13:38.430Z,20.10
2023-04-12T05:16:13.154Z,17.30
2023-04-12T05:18:50.579Z,21.80
2023-04-12T05:21:24.674Z,20.40
2023-04-12T05:23:58.472Z,17.70
2023-04-12T05:26:33.580Z,15.60
2023-04-12T05:29:07.571Z,18.30
2023-04-12T05:31:40.685Z,14.70
2023-04-12T05:34:17.739Z,15.90
2023-04-12T05:36:59.817Z,16.80
2023-04-12T05:39:43.773Z,21.60
2023-04-12T05:42:16.883Z,25.30
2023-04-12T05:44:51.127Z,23.20
2023-04-12T05:47:24.933Z,24.30
2023-04-12T05:49:58.570Z,19.20
2023-04-12T05:52:39.551Z,23.00
2023-04-12T05:55:13.365Z,22.20
2023-04-12T05:57:48.084Z,24.30
2023-04-12T06:00:29.096Z,17.10
2023-04-12T06:03:02.909Z,12.10
2023-04-12T06:05:37.222Z,10.80
2023-04-12T06:08:13.427Z,11.70
2023-04-12T06:10:47.628Z,9.80
2023-04-12T06:13:21.143Z,9.10
2023-04-12T06:15:55.431Z,9.50
2023-04-12T06:18:29.118Z,8.60
2023-04-12T06:21:05.924Z,9.30
2023-04-12T06:23:40.221Z,10.30
2023-04-12T06:26:13.173Z,8.90
2023-04-12T06:28:46.372Z,8.20
2023-04-12T06:31:20.519Z,7.30
2023-04-12T06:33:53.962Z,7.30
2023-04-12T06:36:27.537Z,8.90
2023-04-12T06:39:00.563Z,10.40
2023-04-12T06:41:33.671Z,10.60
2023-04-12T06:44:07.807Z,8.50
2023-04-12T06:46:44.537Z,9.30
2023-04-12T06:49:18.096Z,9.60
2023-04-12T06:51:51.499Z,9.00
2023-04-12T06:54:24.366Z,12.10
2023-04-12T06:56:58.070Z,10.60
2023-04-12T06:59:31.438Z,12.30
2023-04-12T07:02:04.132Z,15.70
2023-04-12T07:04:37.049Z,14.30
2023-04-12T07:07:11.713Z,12.10
2023-04-12T07:09:45.534Z,13.90
2023-04-12T07:12:18.152Z,13.00
2023-04-12T07:14:54.987Z,11.70
2023-04-12T07:17:28.418Z,10.60
2023-04-12T07:20:01.916Z,10.00
2023-04-12T07:22:47.743Z,9.90
2023-04-12T07:25:21.329Z,8.50
2023-04-12T07:27:53.912Z,9.60
2023-04-12T07:30:26.754Z,9.20
2023-04-12T07:33:12.415Z,10.40
2023-04-12T07:35:53.958Z,9.50
2023-04-12T07:38:27.066Z,8.50
2023-04-12T07:40:59.643Z,7.80
2023-04-12T07:43:32.778Z,8.10
2023-04-12T07:46:08.937Z,7.30
2023-04-12T07:48:44.478Z,7.80
2023-04-12T07:51:17.972Z,7.90
2023-04-12T07:53:50.787Z,7.90
2023-04-12T07:56:23.588Z,7.30
2023-04-12T07:58:57.333Z,6.80
2023-04-12T08:01:40.022Z,7.20
2023-04-12T08:04:13.489Z,7.20
2023-04-12T08:06:46.398Z,6.90
2023-04-12T08:09:20.735Z,7.20
2023-04-12T08:11:53.634Z,7.90
2023-04-12T08:14:31.719Z,7.70
2023-04-12T08:17:05.887Z,8.80
2023-04-12T08:19:39.281Z,7.50
2023-04-12T08:22:14.370Z,8.60
2023-04-12T08:24:50.137Z,9.20
2023-04-12T08:27:23.271Z,8.60
2023-04-12T08:29:57.434Z,9.30
2023-04-12T08:32:30.173Z,10.40
2023-04-12T08:35:02.776Z,10.20
2023-04-12T08:37:36.513Z,10.10
2023-04-12T08:40:10.706Z,9.60
2023-04-12T08:42:43.387Z,10.40
2023-04-12T08:45:17.184Z,9.60
2023-04-12T08:47:50.830Z,12.40
2023-04-12T08:50:25.045Z,14.00
2023-04-12T08:52:58.021Z,14.90
2023-04-12T08:55:30.742Z,12.10
2023-04-12T08:58:07.604Z,10.70
2023-04-12T09:00:41.281Z,10.60
2023-04-12T09:03:14.313Z,12.50
2023-04-12T09:05:47.886Z,15.10
2023-04-12T09:08:21.160Z,22.80
2023-04-12T09:10:56.893Z,27.10
2023-04-12T09:13:37.320Z,28.10
2023-04-12T09:16:11.203Z,22.10
2023-04-12T09:18:53.359Z,22.60
2023-04-12T09:21:27.578Z,17.40
2023-04-12T09:24:12.283Z,13.00
2023-04-12T09:26:46.631Z,9.10
2023-04-12T09:29:26.695Z,8.90
2023-04-12T09:32:03.571Z,8.50
2023-04-12T09:34:39.075Z,7.70
2023-04-12T09:37:17.696Z,8.70
2023-04-12T09:40:04.714Z,8.70
2023-04-12T09:42:38.514Z,9.30
2023-04-12T09:45:25.804Z,10.70
2023-04-12T09:47:58.805Z,8.60
2023-04-12T09:50:33.706Z,11.90
2023-04-12T09:53:18.579Z,13.50
2023-04-12T09:55:51.913Z,12.40
2023-04-12T09:58:25.529Z,9.20
2023-04-12T10:00:58.426Z,12.00
2023-04-12T10:03:32.599Z,11.00
2023-04-12T10:06:06.259Z,14.80
2023-04-12T10:08:39.804Z,17.10
2023-04-12T10:11:12.865Z,22.30
2023-04-12T10:13:45.529Z,27.50
2023-04-12T10:16:18.414Z,27.80
2023-04-12T10:18:52.685Z,29.90
2023-04-12T10:21:26.447Z,29.10
2023-04-12T10:24:07.343Z,30.90
2023-04-12T10:26:44.569Z,26.90
2023-04-12T10:29:27.716Z,22.70
2023-04-12T10:32:01.687Z,25.20
2023-04-12T10:34:35.203Z,26.00
2023-04-12T10:37:08.416Z,25.30
2023-04-12T10:39:42.494Z,25.60
2023-04-12T10:42:27.219Z,35.90
2023-04-12T10:45:40.646Z,36.60
2023-04-12T10:48:37.296Z,26.30
2023-04-12T10:51:23.672Z,20.60
2023-04-12T10:54:16.758Z,17.10
2023-04-12T10:56:50.698Z,15.10
2023-04-12T10:59:59.700Z,16.80
2023-04-12T11:02:36.781Z,17.40
2023-04-12T11:05:11.578Z,18.80
2023-04-12T11:08:10.488Z,18.00
2023-04-12T11:10:50.417Z,12.40
2023-04-12T11:13:28.931Z,13.10
2023-04-12T11:16:08.086Z,15.90
2023-04-12T11:18:41.301Z,16.20
2023-04-12T11:21:14.719Z,12.80
2023-04-12T11:23:49.803Z,11.80
2023-04-12T11:26:23.759Z,14.10
2023-04-12T11:28:56.574Z,20.10
2023-04-12T11:31:29.452Z,22.20
2023-04-12T11:34:02.534Z,19.60
2023-04-12T11:36:35.165Z,16.20
2023-04-12T11:39:08.402Z,18.10
2023-04-12T11:41:41.965Z,16.90
2023-04-12T11:44:15.522Z,17.80
2023-04-12T11:46:48.545Z,13.60
2023-04-12T11:49:26.119Z,12.90
2023-04-12T11:52:06.064Z,18.40
2023-04-12T11:54:39.441Z,24.60
2023-04-12T11:57:14.992Z,22.20
2023-04-12T11:59:52.738Z,24.40
2023-04-12T12:02:29.117Z,25.40
2023-04-12T12:05:05.293Z,19.80
2023-04-12T12:07:38.422Z,16.50
2023-04-12T12:10:18.429Z,18.20
2023-04-12T12:13:01.775Z,14.70
2023-04-12T12:15:34.429Z,14.40
2023-04-12T12:18:12.219Z,15.80
2023-04-12T12:20:48.893Z,16.60
2023-04-12T12:23:35.888Z,17.90
2023-04-12T12:26:18.876Z,16.40
2023-04-12T12:28:54.271Z,17.10
2023-04-12T12:31:28.164Z,18.20
2023-04-12T12:34:04.192Z,17.70
2023-04-12T12:36:39.307Z,21.40
2023-04-12T12:39:15.731Z,29.50
2023-04-12T12:41:54.336Z,35.80
2023-04-12T12:44:29.002Z,35.00
2023-04-12T12:47:13.513Z,38.90
2023-04-12T12:49:46.992Z,38.10
2023-04-12T12:52:20.224Z,31.40
2023-04-12T12:54:52.939Z,27.20
2023-04-12T12:57:27.814Z,22.30
2023-04-12T13:00:00.542Z,20.20
2023-04-12T13:02:35.500Z,16.50
2023-04-12T13:05:11.712Z,17.20
2023-04-12T13:07:45.777Z,21.10
2023-04-12T13:10:18.392Z,21.50
2023-04-12T13:12:51.707Z,21.00
2023-04-12T13:15:25.017Z,26.10
2023-04-12T13:17:57.977Z,30.10
2023-04-12T13:20:32.677Z,29.10
2023-04-12T13:23:05.929Z,22.80
2023-04-12T13:25:38.743Z,23.50
2023-04-12T13:28:12.968Z,21.20
2023-04-12T13:30:50.301Z,17.30
2023-04-12T13:33:24.470Z,16.80
2023-04-12T13:35:57.211Z,15.30
2023-04-12T13:38:29.830Z,17.00
2023-04-12T13:41:03.470Z,16.30
2023-04-12T13:43:36.825Z,16.70
2023-04-12T13:46:15.708Z,15.70
2023-04-12T13:48:49.015Z,16.30
2023-04-12T13:51:21.811Z,16.00
2023-04-12T13:53:57.148Z,14.40
2023-04-12T13:56:30.933Z,13.80
2023-04-12T13:59:04.056Z,14.40
2023-04-12T14:01:38.073Z,17.30
2023-04-12T14:04:11.521Z,23.80
2023-04-12T14:06:45.819Z,29.10
2023-04-12T14:09:29.517Z,28.00
2023-04-12T14:12:03.246Z,31.60
2023-04-12T14:14:35.898Z,33.60
2023-04-12T14:17:09.186Z,34.20
2023-04-12T14:19:42.308Z,35.20
2023-04-12T14:22:14.956Z,36.40
2023-04-12T14:24:52.784Z,30.20
2023-04-12T14:27:26.479Z,34.70
2023-04-12T14:29:59.446Z,32.80
2023-04-12T14:32:32.606Z,28.30
2023-04-12T14:35:05.991Z,29.90
2023-04-12T14:37:38.671Z,29.50
2023-04-12T14:40:12.696Z,28.30
2023-04-12T14:42:45.517Z,23.30
2023-04-12T14:45:21.220Z,23.60
2023-04-12T14:47:54.388Z,19.50
2023-04-12T14:50:26.994Z,16.10
2023-04-12T14:52:59.684Z,14.70
2023-04-12T14:55:32.765Z,15.30
2023-04-12T14:58:05.522Z,15.00
2023-04-12T15:00:40.399Z,13.90
2023-04-12T15:03:13.511Z,15.10
2023-04-12T15:05:54.309Z,14.10
2023-04-12T15:08:29.314Z,16.20
2023-04-12T15:11:02.154Z,16.90
2023-04-12T15:13:35.384Z,17.30
2023-04-12T15:16:12.987Z,17.80
2023-04-12T15:18:47.169Z,19.80
2023-04-12T15:21:19.984Z,27.10
2023-04-12T15:23:56.500Z,43.40
2023-04-12T15:26:30.703Z,48.20
2023-04-12T15:29:04.364Z,57.40
2023-04-12T15:31:39.924Z,61.50
2023-04-12T15:34:13.716Z,62.20
2023-04-12T15:36:46.606Z,63.30
2023-04-12T15:39:23.482Z,62.80
2023-04-12T15:41:56.334Z,63.00
2023-04-12T15:44:32.184Z,68.10
2023-04-12T15:47:11.005Z,66.50
2023-04-12T15:49:44.762Z,47.30
2023-04-12T15:52:17.504Z,57.40
2023-04-12T15:54:51.964Z,46.50
2023-04-12T15:57:24.706Z,36.60
2023-04-12T16:00:00.072Z,28.70
2023-04-12T16:02:33.997Z,22.00
2023-04-12T16:05:07.895Z,19.40
2023-04-12T16:07:41.149Z,18.70
2023-04-12T16:10:15.495Z,20.20
2023-04-12T16:12:49.710Z,19.40
2023-04-12T16:15:22.272Z,19.20
2023-04-12T16:17:57.083Z,22.70
2023-04-12T16:20:30.779Z,20.80
2023-04-12T16:23:03.925Z,19.70
2023-04-12T16:25:40.570Z,20.60
2023-04-12T16:28:14.657Z,19.40
2023-04-12T16:30:47.512Z,20.80
2023-04-12T16:33:24.037Z,20.90
2023-04-12T16:35:57.142Z,23.90
2023-04-12T16:38:29.900Z,26.60
2023-04-12T16:41:02.638Z,29.60
2023-04-12T16:43:38.024Z,35.70
2023-04-12T16:46:11.235Z,34.00
2023-04-12T16:48:44.054Z,34.70
2023-04-12T16:51:17.219Z,40.40
2023-04-12T16:53:52.609Z,39.00
2023-04-12T16:56:27.383Z,34.30
2023-04-12T16:59:00.391Z,32.30
2023-04-12T17:01:36.019Z,32.90
2023-04-12T17:04:08.803Z,32.10
2023-04-12T17:06:43.059Z,31.10
2023-04-12T17:09:16.758Z,35.80
2023-04-12T17:11:51.094Z,44.90
2023-04-12T17:14:23.991Z,51.70
2023-04-12T17:16:57.605Z,54.40
2023-04-12T17:19:33.818Z,55.60
2023-04-12T17:22:08.583Z,54.80
2023-04-12T17:24:42.916Z,71.00
2023-04-12T17:27:17.589Z,76.20
2023-04-12T17:29:53.569Z,73.20
2023-04-12T17:32:34.929Z,79.10
2023-04-12T17:35:18.122Z,76.90
2023-04-12T17:37:52.734Z,77.70
2023-04-12T17:40:31.499Z,60.00
2023-04-12T17:43:06.726Z,37.10
2023-04-12T17:45:41.360Z,29.90
2023-04-12T17:48:16.646Z,25.20
2023-04-12T17:50:52.357Z,23.60
2023-04-12T17:53:30.963Z,20.60
2023-04-12T17:56:04.756Z,20.30
2023-04-12T17:58:38.141Z,18.50
2023-04-12T18:01:10.723Z,16.90
2023-04-12T18:03:44.701Z,17.30
2023-04-12T18:06:18.564Z,17.00
2023-04-12T18:08:55.628Z,16.80
2023-04-12T18:11:29.007Z,18.60
2023-04-12T18:14:02.069Z,19.50
2023-04-12T18:16:36.521Z,18.10
2023-04-12T18:19:11.535Z,18.60
2023-04-12T18:21:48.488Z,18.00
2023-04-12T18:24:21.816Z,16.80
2023-04-12T18:26:55.229Z,16.60
2023-04-12T18:29:28.708Z,15.30
2023-04-12T18:32:01.533Z,13.10
2023-04-12T18:34:34.956Z,14.20
2023-04-12T18:37:07.992Z,13.00
2023-04-12T18:39:43.093Z,13.10
2023-04-12T18:42:16.348Z,13.70
2023-04-12T18:44:49.425Z,14.20
2023-04-12T18:47:22.159Z,6.80
2023-04-12T18:49:56.790Z,6.10
2023-04-12T18:52:29.816Z,6.10
2023-04-12T18:55:08.614Z,6.60
2023-04-12T18:57:42.218Z,6.30
2023-04-12T19:00:16.639Z,4.90
2023-04-12T19:02:49.849Z,4.60
2023-04-12T19:05:23.085Z,4.10
2023-04-12T19:07:56.506Z,4.80
2023-04-12T19:10:31.063Z,4.60
2023-04-12T19:13:05.202Z,5.00
2023-04-12T19:15:38.615Z,5.40
2023-04-12T19:18:11.668Z,5.30
2023-04-12T19:20:45.363Z,5.70
2023-04-12T19:23:18.042Z,6.00
2023-04-12T19:25:53.253Z,6.40
2023-04-12T19:28:27.458Z,6.30
2023-04-12T19:31:01.736Z,7.10
2023-04-12T19:33:39.162Z,6.60
2023-04-12T19:36:12.123Z,8.00
2023-04-12T19:38:47.997Z,6.50
2023-04-12T19:41:21.905Z,5.60
2023-04-12T19:43:54.859Z,7.30
2023-04-12T19:46:29.110Z,6.00
2023-04-12T19:49:02.262Z,6.70
2023-04-12T19:51:35.555Z,5.40
2023-04-12T19:54:10.071Z,5.70
2023-04-12T19:56:44.334Z,5.90
2023-04-12T19:59:17.968Z,5.70
2023-04-12T20:01:52.532Z,5.00
2023-04-12T20:04:26.004Z,5.40
2023-04-12T20:07:00.109Z,5.80
2023-04-12T20:09:34.631Z,5.20
2023-04-12T20:12:08.478Z,5.70
2023-04-12T20:14:42.228Z,5.20
2023-04-12T20:17:15.254Z,5.30
2023-04-12T20:19:47.933Z,5.60
2023-04-12T20:22:22.395Z,5.20
2023-04-12T20:24:56.136Z,5.00
2023-04-12T20:27:29.776Z,4.50
2023-04-12T20:30:05.318Z,5.30
2023-04-12T20:32:39.272Z,4.60
2023-04-12T20:35:15.627Z,4.60
2023-04-12T20:37:51.237Z,4.20
2023-04-12T20:40:30.243Z,4.60
2023-04-12T20:43:03.652Z,4.40
2023-04-12T20:45:38.346Z,5.70
2023-04-12T20:48:11.873Z,4.50
2023-04-12T20:50:44.589Z,5.40
2023-04-12T20:53:17.752Z,4.60
2023-04-12T20:55:51.067Z,5.20
2023-04-12T20:58:24.764Z,5.90
2023-04-12T21:00:58.876Z,4.80
2023-04-12T21:03:33.003Z,6.30
2023-04-12T21:06:07.102Z,5.70
2023-04-12T21:08:43.577Z,5.40
2023-04-12T21:11:16.487Z,5.90
2023-04-12T21:13:49.846Z,5.80
2023-04-12T21:16:25.201Z,6.40
2023-04-12T21:18:59.580Z,6.60
2023-04-12T21:21:33.396Z,6.70
2023-04-12T21:24:07.328Z,6.90
2023-04-12T21:26:41.166Z,7.40
2023-04-12T21:29:19.871Z,7.10
2023-04-12T21:31:53.007Z,7.60
2023-04-12T21:34:26.353Z,7.00
2023-04-12T21:37:00.436Z,7.70
2023-04-12T21:39:33.528Z,7.10
2023-04-12T21:42:06.397Z,6.60
2023-04-12T21:44:40.474Z,6.80
2023-04-12T21:47:13.109Z,7.20
2023-04-12T21:49:46.131Z,6.50
2023-04-12T21:52:18.969Z,6.80
2023-04-12T21:54:51.676Z,6.10
2023-04-12T21:57:24.545Z,7.50
2023-04-12T21:59:58.103Z,6.20
2023-04-12T22:02:30.908Z,6.60
2023-04-12T22:05:03.737Z,6.00
2023-04-12T22:07:41.709Z,5.10
2023-04-12T22:10:15.151Z,6.90
2023-04-12T22:12:54.150Z,5.10
2023-04-12T22:15:28.607Z,5.50
2023-04-12T22:18:01.758Z,5.20
2023-04-12T22:20:41.625Z,4.50
2023-04-12T22:23:18.331Z,4.40
2023-04-12T22:25:51.079Z,5.00
2023-04-12T22:28:24.693Z,4.60
2023-04-12T22:30:57.978Z,3.70
2023-04-12T22:33:31.314Z,4.20
2023-04-12T22:36:06.382Z,3.10
2023-04-12T22:38:42.466Z,4.00
2023-04-12T22:41:18.227Z,3.50
2023-04-12T22:44:01.619Z,3.70
2023-04-12T22:46:39.404Z,3.20
2023-04-12T22:49:12.499Z,3.40
2023-04-12T22:51:46.561Z,3.60
2023-04-12T22:54:20.900Z,3.90
2023-04-12T22:56:53.381Z,3.70
2023-04-12T22:59:28.493Z,3.70
2023-04-12T23:02:01.501Z,3.40
2023-04-12T23:04:34.852Z,3.60
2023-04-12T23:07:07.954Z,3.30
2023-04-12T23:09:41.452Z,3.60
2023-04-12T23:12:14.660Z,4.10
2023-04-12T23:14:55.836Z,3.80
2023-04-12T23:17:29.549Z,4.20
2023-04-12T23:20:05.818Z,4.90
2023-04-12T23:22:57.453Z,4.00
2023-04-12T23:25:39.808Z,3.70
2023-04-12T23:28:14.420Z,4.20
2023-04-12T23:30:49.298Z,4.50
2023-04-12T23:33:22.824Z,5.20
2023-04-12T23:35:56.314Z,4.40
2023-04-12T23:38:34.037Z,4.80
2023-04-12T23:41:09.277Z,4.60
2023-04-12T23:43:41.955Z,5.00
2023-04-12T23:46:15.282Z,5.40
2023-04-12T23:48:49.533Z,5.00
2023-04-12T23:51:27.416Z,4.80
2023-04-12T23:54:00.196Z,5.10
2023-04-12T23:56:33.297Z,5.40
2023-04-12T23:59:06.583Z,5.60
